Worman, Pennsylvania
Current Conditions -  °F | °C
As of 9:16 AM on Monday 26 Jan 2015 (Local Time) from KPTW Reporting Station
Light Snow Light Snow  
Wind Chill: 10°   Ceiling: 2800
Heat Index: 21°   Visibility: 1.5mi
Dew Point: 16°   Wind: 10mph
Humidity: 81%   Direction: 60°ENE
Pressure: 29.93"   Gusts: 18mph
Location:  40.2688°N, 75.7411°W
Report Text: KPTW 261416Z AUTO 06009G16KT 1 1/2SM -SN OVC028 M06/M09 A2993 RMK AO2 P0000 T10611089
Loading
Personal Weather Stations






























Interactive Weather Map New forecast layout! Learn more

10-Day Weather Forecast

Advertisements
Track Severe Weather on mobile